Archival Weather

Chicago O'Hare International

Chicago, Illinois (KORD)

Report from: Thursday, November 24, 2022 2:51 AM CST
Current time: Sunday, December 4, 2022 5:57 AM CST

Current weather
Weather history
Weather forecast

Temperature3.9°C (39.0°F)
Wind chill1.5°C (34.8°F)
Dew point-0.6°C (30.9°F)
Winds 5 kts (2.6 m/s, 5.8 mph) South-Southeast (160°)
Visibility10 mi. (16.1 km)
Clouds Scattered clouds 25,000 ft. (7,620 m)
Altimeter30.14 in.Hg (1021 mB)
Relative humidity72 %
Density altitude-1,507 ft. (-459 m)
Sea-level pressure102.1 kPa (1021 mB, 30.15 in.Hg)
Remarks System requires maintenance
Automated weather observing station with precipitation discriminator
Pressure falling more quickly
Flight conditions Visual Meteorological Conditions
Raw dataKORD 240851Z 16005KT 10SM SCT250 04/M01 A3014 RMK AO2 SLP209 T00391006 58004 $
An error has occurred. This application may no longer respond until reloaded. Reload 🗙